sensor_id;sensor_type;location;lat;lon;timestamp;temperature;humidity
22112;DHT22;11222;50.872;4.312;2022-08-04T00:01:21;25.30;99.90
22112;DHT22;11222;50.872;4.312;2022-08-04T00:03:54;25.30;99.90
22112;DHT22;11222;50.872;4.312;2022-08-04T00:09:01;25.20;99.90
22112;DHT22;11222;50.872;4.312;2022-08-04T00:11:30;25.10;99.90
22112;DHT22;11222;50.872;4.312;2022-08-04T00:14:06;25.10;99.90
22112;DHT22;11222;50.872;4.312;2022-08-04T00:16:37;25.10;99.90
22112;DHT22;11222;50.872;4.312;2022-08-04T00:19:11;25.10;99.90
22112;DHT22;11222;50.872;4.312;2022-08-04T00:21:47;25.10;99.90
22112;DHT22;11222;50.872;4.312;2022-08-04T00:24:16;25.10;99.90
22112;DHT22;11222;50.872;4.312;2022-08-04T00:26:42;25.00;99.90
22112;DHT22;11222;50.872;4.312;2022-08-04T00:29:09;25.00;99.90
22112;DHT22;11222;50.872;4.312;2022-08-04T00:31:35;25.00;99.90
22112;DHT22;11222;50.872;4.312;2022-08-04T00:34:02;25.00;99.90
22112;DHT22;11222;50.872;4.312;2022-08-04T00:36:28;25.00;99.90
22112;DHT22;11222;50.872;4.312;2022-08-04T00:38:55;25.00;99.90
22112;DHT22;11222;50.872;4.312;2022-08-04T00:44:57;24.90;99.90
22112;DHT22;11222;50.872;4.312;2022-08-04T00:47:40;25.00;99.90
22112;DHT22;11222;50.872;4.312;2022-08-04T00:50:11;24.90;99.90
22112;DHT22;11222;50.872;4.312;2022-08-04T01:01:01;24.60;99.90
22112;DHT22;11222;50.872;4.312;2022-08-04T01:03:50;24.40;99.90
22112;DHT22;11222;50.872;4.312;2022-08-04T01:06:35;24.40;99.90
22112;DHT22;11222;50.872;4.312;2022-08-04T01:09:23;24.30;99.90
22112;DHT22;11222;50.872;4.312;2022-08-04T01:12:02;24.30;99.90
22112;DHT22;11222;50.872;4.312;2022-08-04T01:15:00;24.20;99.90
22112;DHT22;11222;50.872;4.312;2022-08-04T01:18:11;24.10;99.90
22112;DHT22;11222;50.872;4.312;2022-08-04T01:20:47;24.00;99.90
22112;DHT22;11222;50.872;4.312;2022-08-04T01:26:12;23.90;99.90
22112;DHT22;11222;50.872;4.312;2022-08-04T01:31:47;23.70;99.90
22112;DHT22;11222;50.872;4.312;2022-08-04T01:34:11;23.60;99.90
22112;DHT22;11222;50.872;4.312;2022-08-04T01:36:42;23.60;99.90
22112;DHT22;11222;50.872;4.312;2022-08-04T01:39:09;23.60;99.90
22112;DHT22;11222;50.872;4.312;2022-08-04T01:41:54;23.70;99.90
22112;DHT22;11222;50.872;4.312;2022-08-04T01:44:23;23.80;99.90
22112;DHT22;11222;50.872;4.312;2022-08-04T01:46:52;23.80;99.90
22112;DHT22;11222;50.872;4.312;2022-08-04T01:49:20;23.90;99.90
22112;DHT22;11222;50.872;4.312;2022-08-04T01:51:49;23.90;99.90
22112;DHT22;11222;50.872;4.312;2022-08-04T01:54:17;23.90;99.90
22112;DHT22;11222;50.872;4.312;2022-08-04T01:56:45;23.80;99.90
22112;DHT22;11222;50.872;4.312;2022-08-04T01:59:14;23.90;99.90
22112;DHT22;11222;50.872;4.312;2022-08-04T02:01:42;23.80;99.90
22112;DHT22;11222;50.872;4.312;2022-08-04T02:04:21;23.80;99.90
22112;DHT22;11222;50.872;4.312;2022-08-04T02:15:02;23.90;99.90
22112;DHT22;11222;50.872;4.312;2022-08-04T02:17:45;23.90;99.90
22112;DHT22;11222;50.872;4.312;2022-08-04T02:23:08;23.80;99.90
22112;DHT22;11222;50.872;4.312;2022-08-04T02:25:54;23.70;99.90
22112;DHT22;11222;50.872;4.312;2022-08-04T02:28:45;23.70;99.90
22112;DHT22;11222;50.872;4.312;2022-08-04T02:31:48;23.70;99.90
22112;DHT22;11222;50.872;4.312;2022-08-04T02:34:24;23.70;99.90
22112;DHT22;11222;50.872;4.312;2022-08-04T02:36:53;23.60;99.90
22112;DHT22;11222;50.872;4.312;2022-08-04T02:39:20;23.50;99.90
22112;DHT22;11222;50.872;4.312;2022-08-04T02:41:48;23.50;99.90
22112;DHT22;11222;50.872;4.312;2022-08-04T02:44:21;23.50;99.90
22112;DHT22;11222;50.872;4.312;2022-08-04T02:46:50;23.50;99.90
22112;DHT22;11222;50.872;4.312;2022-08-04T02:49:17;23.50;99.90
22112;DHT22;11222;50.872;4.312;2022-08-04T02:51:51;23.40;99.90
22112;DHT22;11222;50.872;4.312;2022-08-04T02:54:19;23.40;99.90
22112;DHT22;11222;50.872;4.312;2022-08-04T02:56:50;23.30;99.90
22112;DHT22;11222;50.872;4.312;2022-08-04T02:59:19;23.30;99.90
22112;DHT22;11222;50.872;4.312;2022-08-04T03:01:45;23.30;99.90
22112;DHT22;11222;50.872;4.312;2022-08-04T03:20:44;23.10;99.90
22112;DHT22;11222;50.872;4.312;2022-08-04T03:33:02;23.00;99.90
22112;DHT22;11222;50.872;4.312;2022-08-04T03:52:50;22.90;99.90
22112;DHT22;11222;50.872;4.312;2022-08-04T03:56:05;22.80;99.90
22112;DHT22;11222;50.872;4.312;2022-08-04T04:04:53;22.60;99.90
22112;DHT22;11222;50.872;4.312;2022-08-04T04:10:28;22.50;99.90
22112;DHT22;11222;50.872;4.312;2022-08-04T04:27:05;22.60;99.90
22112;DHT22;11222;50.872;4.312;2022-08-04T04:35:34;22.50;99.90
22112;DHT22;11222;50.872;4.312;2022-08-04T04:40:55;22.40;99.90
22112;DHT22;11222;50.872;4.312;2022-08-04T04:43:40;22.30;99.90
22112;DHT22;11222;50.872;4.312;2022-08-04T04:49:19;22.40;99.90
22112;DHT22;11222;50.872;4.312;2022-08-04T04:51:54;22.30;99.90
22112;DHT22;11222;50.872;4.312;2022-08-04T04:57:16;22.40;99.90
22112;DHT22;11222;50.872;4.312;2022-08-04T05:08:38;22.50;99.90
22112;DHT22;11222;50.872;4.312;2022-08-04T05:13:47;22.60;99.90
22112;DHT22;11222;50.872;4.312;2022-08-04T05:18:45;22.60;99.90
22112;DHT22;11222;50.872;4.312;2022-08-04T05:24:10;22.80;99.90
22112;DHT22;11222;50.872;4.312;2022-08-04T05:26:45;22.80;99.90
22112;DHT22;11222;50.872;4.312;2022-08-04T05:29:17;22.90;99.90
22112;DHT22;11222;50.872;4.312;2022-08-04T05:31:50;23.00;99.90
22112;DHT22;11222;50.872;4.312;2022-08-04T05:34:26;23.00;99.90
22112;DHT22;11222;50.872;4.312;2022-08-04T05:36:57;23.10;99.90
22112;DHT22;11222;50.872;4.312;2022-08-04T05:39:27;23.10;99.90
22112;DHT22;11222;50.872;4.312;2022-08-04T05:41:54;23.10;99.90
22112;DHT22;11222;50.872;4.312;2022-08-04T05:44:22;23.10;99.90
22112;DHT22;11222;50.872;4.312;2022-08-04T05:46:51;23.10;99.90
22112;DHT22;11222;50.872;4.312;2022-08-04T05:49:21;23.20;99.90
22112;DHT22;11222;50.872;4.312;2022-08-04T05:51:47;23.30;99.90
22112;DHT22;11222;50.872;4.312;2022-08-04T05:54:14;23.40;99.90
22112;DHT22;11222;50.872;4.312;2022-08-04T05:56:42;23.50;99.90
22112;DHT22;11222;50.872;4.312;2022-08-04T05:59:10;23.60;99.90
22112;DHT22;11222;50.872;4.312;2022-08-04T06:01:37;23.60;99.90
22112;DHT22;11222;50.872;4.312;2022-08-04T06:04:04;23.70;99.90
22112;DHT22;11222;50.872;4.312;2022-08-04T06:06:31;23.70;99.90
22112;DHT22;11222;50.872;4.312;2022-08-04T06:08:57;23.80;99.90
22112;DHT22;11222;50.872;4.312;2022-08-04T06:11:25;23.90;99.90
22112;DHT22;11222;50.872;4.312;2022-08-04T06:14:00;23.80;99.90
22112;DHT22;11222;50.872;4.312;2022-08-04T06:16:34;23.80;99.90
22112;DHT22;11222;50.872;4.312;2022-08-04T06:19:05;23.80;99.90
22112;DHT22;11222;50.872;4.312;2022-08-04T06:21:32;23.90;99.90
22112;DHT22;11222;50.872;4.312;2022-08-04T06:23:59;23.90;99.90
22112;DHT22;11222;50.872;4.312;2022-08-04T06:26:27;23.80;99.90
22112;DHT22;11222;50.872;4.312;2022-08-04T06:28:56;23.90;99.90
22112;DHT22;11222;50.872;4.312;2022-08-04T06:31:23;23.90;99.90
22112;DHT22;11222;50.872;4.312;2022-08-04T06:34:13;24.00;99.90
22112;DHT22;11222;50.872;4.312;2022-08-04T06:36:40;24.00;99.90
22112;DHT22;11222;50.872;4.312;2022-08-04T06:39:09;23.80;99.90
22112;DHT22;11222;50.872;4.312;2022-08-04T06:41:35;23.90;99.90
22112;DHT22;11222;50.872;4.312;2022-08-04T06:44:04;23.90;99.90
22112;DHT22;11222;50.872;4.312;2022-08-04T06:46:31;23.90;99.90
22112;DHT22;11222;50.872;4.312;2022-08-04T06:48:58;23.90;99.90
22112;DHT22;11222;50.872;4.312;2022-08-04T06:51:25;24.20;99.90
22112;DHT22;11222;50.872;4.312;2022-08-04T06:53:52;24.40;99.90
22112;DHT22;11222;50.872;4.312;2022-08-04T06:56:18;24.80;99.90
22112;DHT22;11222;50.872;4.312;2022-08-04T06:58:45;25.30;99.90
22112;DHT22;11222;50.872;4.312;2022-08-04T07:01:13;25.40;99.90
22112;DHT22;11222;50.872;4.312;2022-08-04T07:03:40;25.60;99.90
22112;DHT22;11222;50.872;4.312;2022-08-04T07:06:06;25.90;99.90
22112;DHT22;11222;50.872;4.312;2022-08-04T07:08:34;26.00;99.90
22112;DHT22;11222;50.872;4.312;2022-08-04T07:11:00;25.90;99.90
22112;DHT22;11222;50.872;4.312;2022-08-04T07:13:27;25.70;99.90
22112;DHT22;11222;50.872;4.312;2022-08-04T07:15:56;25.60;99.90
22112;DHT22;11222;50.872;4.312;2022-08-04T07:18:22;25.60;99.90
22112;DHT22;11222;50.872;4.312;2022-08-04T07:20:48;25.60;99.90
22112;DHT22;11222;50.872;4.312;2022-08-04T07:23:15;25.70;99.90
22112;DHT22;11222;50.872;4.312;2022-08-04T07:25:56;25.50;99.90
22112;DHT22;11222;50.872;4.312;2022-08-04T07:28:28;25.50;99.90
22112;DHT22;11222;50.872;4.312;2022-08-04T07:30:55;25.60;99.90
22112;DHT22;11222;50.872;4.312;2022-08-04T07:33:22;25.70;99.90
22112;DHT22;11222;50.872;4.312;2022-08-04T07:35:53;26.00;99.90
22112;DHT22;11222;50.872;4.312;2022-08-04T07:38:19;25.80;99.90
22112;DHT22;11222;50.872;4.312;2022-08-04T07:40:45;26.00;99.90
22112;DHT22;11222;50.872;4.312;2022-08-04T07:43:13;26.30;99.90
22112;DHT22;11222;50.872;4.312;2022-08-04T07:45:39;26.30;99.90
22112;DHT22;11222;50.872;4.312;2022-08-04T07:48:05;26.00;99.90
22112;DHT22;11222;50.872;4.312;2022-08-04T07:50:32;25.60;99.90
22112;DHT22;11222;50.872;4.312;2022-08-04T07:52:59;25.60;99.90
22112;DHT22;11222;50.872;4.312;2022-08-04T07:55:25;25.50;99.90
22112;DHT22;11222;50.872;4.312;2022-08-04T07:57:52;25.40;99.90
22112;DHT22;11222;50.872;4.312;2022-08-04T08:00:18;25.40;99.90
22112;DHT22;11222;50.872;4.312;2022-08-04T08:02:51;25.40;99.90
22112;DHT22;11222;50.872;4.312;2022-08-04T08:05:19;25.50;99.90
22112;DHT22;11222;50.872;4.312;2022-08-04T08:07:49;25.00;99.90
22112;DHT22;11222;50.872;4.312;2022-08-04T08:10:16;24.40;99.90
22112;DHT22;11222;50.872;4.312;2022-08-04T08:12:42;24.00;99.90
22112;DHT22;11222;50.872;4.312;2022-08-04T08:15:10;23.90;99.90
22112;DHT22;11222;50.872;4.312;2022-08-04T08:17:37;24.00;99.90
22112;DHT22;11222;50.872;4.312;2022-08-04T08:20:06;24.20;99.90
22112;DHT22;11222;50.872;4.312;2022-08-04T08:22:32;24.30;99.90
22112;DHT22;11222;50.872;4.312;2022-08-04T08:24:57;23.80;99.90
22112;DHT22;11222;50.872;4.312;2022-08-04T08:27:24;23.70;99.90
22112;DHT22;11222;50.872;4.312;2022-08-04T08:29:50;23.80;99.90
22112;DHT22;11222;50.872;4.312;2022-08-04T08:32:16;23.80;99.90
22112;DHT22;11222;50.872;4.312;2022-08-04T08:34:42;23.70;99.90
22112;DHT22;11222;50.872;4.312;2022-08-04T08:37:29;23.80;99.90
22112;DHT22;11222;50.872;4.312;2022-08-04T08:42:59;23.90;99.90
22112;DHT22;11222;50.872;4.312;2022-08-04T08:51:42;24.00;99.90
22112;DHT22;11222;50.872;4.312;2022-08-04T09:00:22;23.90;99.90
22112;DHT22;11222;50.872;4.312;2022-08-04T09:11:26;23.80;99.90
22112;DHT22;11222;50.872;4.312;2022-08-04T09:14:07;23.70;99.90
22112;DHT22;11222;50.872;4.312;2022-08-04T09:16:50;23.80;99.90
22112;DHT22;11222;50.872;4.312;2022-08-04T09:19:58;23.60;99.90
22112;DHT22;11222;50.872;4.312;2022-08-04T09:22:43;23.50;99.90
22112;DHT22;11222;50.872;4.312;2022-08-04T09:25:23;23.20;99.90
22112;DHT22;11222;50.872;4.312;2022-08-04T09:28:03;23.30;99.90
22112;DHT22;11222;50.872;4.312;2022-08-04T09:30:42;23.50;99.90
22112;DHT22;11222;50.872;4.312;2022-08-04T09:39:45;23.40;99.90
22112;DHT22;11222;50.872;4.312;2022-08-04T09:42:27;23.50;99.90
22112;DHT22;11222;50.872;4.312;2022-08-04T09:45:24;23.60;99.90
22112;DHT22;11222;50.872;4.312;2022-08-04T09:47:53;23.60;99.90
22112;DHT22;11222;50.872;4.312;2022-08-04T09:50:34;23.60;99.90
22112;DHT22;11222;50.872;4.312;2022-08-04T10:01:13;24.30;99.90
22112;DHT22;11222;50.872;4.312;2022-08-04T10:03:44;24.90;99.90
22112;DHT22;11222;50.872;4.312;2022-08-04T10:06:33;24.80;99.90
22112;DHT22;11222;50.872;4.312;2022-08-04T10:12:02;25.00;99.90
22112;DHT22;11222;50.872;4.312;2022-08-04T10:19:55;27.50;99.90
22112;DHT22;11222;50.872;4.312;2022-08-04T10:22:35;28.10;99.90
22112;DHT22;11222;50.872;4.312;2022-08-04T10:28:05;27.50;99.90
22112;DHT22;11222;50.872;4.312;2022-08-04T10:30:36;28.30;99.90
22112;DHT22;11222;50.872;4.312;2022-08-04T10:33:36;28.20;99.90
22112;DHT22;11222;50.872;4.312;2022-08-04T10:36:08;28.60;99.90
22112;DHT22;11222;50.872;4.312;2022-08-04T10:39:13;30.20;99.90
22112;DHT22;11222;50.872;4.312;2022-08-04T10:41:55;31.40;99.90
22112;DHT22;11222;50.872;4.312;2022-08-04T10:44:36;31.50;99.90
22112;DHT22;11222;50.872;4.312;2022-08-04T10:47:13;31.90;99.90
22112;DHT22;11222;50.872;4.312;2022-08-04T10:50:02;32.00;99.90
22112;DHT22;11222;50.872;4.312;2022-08-04T10:52:43;31.50;99.90
22112;DHT22;11222;50.872;4.312;2022-08-04T10:55:19;31.60;99.90
22112;DHT22;11222;50.872;4.312;2022-08-04T10:57:55;32.10;99.90
22112;DHT22;11222;50.872;4.312;2022-08-04T11:00:27;32.10;99.90
22112;DHT22;11222;50.872;4.312;2022-08-04T11:03:16;32.00;99.90
22112;DHT22;11222;50.872;4.312;2022-08-04T11:08:32;30.80;99.90
22112;DHT22;11222;50.872;4.312;2022-08-04T11:11:00;30.10;99.90
22112;DHT22;11222;50.872;4.312;2022-08-04T11:13:33;29.00;99.90
22112;DHT22;11222;50.872;4.312;2022-08-04T11:16:05;28.50;99.90
22112;DHT22;11222;50.872;4.312;2022-08-04T11:21:23;27.30;99.90
22112;DHT22;11222;50.872;4.312;2022-08-04T11:24:00;27.10;99.90
22112;DHT22;11222;50.872;4.312;2022-08-04T11:26:45;27.00;99.90
22112;DHT22;11222;50.872;4.312;2022-08-04T11:31:48;26.80;99.90
22112;DHT22;11222;50.872;4.312;2022-08-04T11:34:20;26.50;99.90
22112;DHT22;11222;50.872;4.312;2022-08-04T11:45:01;28.20;99.90
22112;DHT22;11222;50.872;4.312;2022-08-04T11:50:12;28.70;99.90
22112;DHT22;11222;50.872;4.312;2022-08-04T11:52:43;29.50;99.90
22112;DHT22;11222;50.872;4.312;2022-08-04T11:55:12;29.90;99.90
22112;DHT22;11222;50.872;4.312;2022-08-04T11:57:38;30.10;99.90
22112;DHT22;11222;50.872;4.312;2022-08-04T12:00:10;29.70;99.90
22112;DHT22;11222;50.872;4.312;2022-08-04T12:02:58;29.60;99.90
22112;DHT22;11222;50.872;4.312;2022-08-04T12:05:43;30.30;99.90
22112;DHT22;11222;50.872;4.312;2022-08-04T12:08:48;30.50;99.90
22112;DHT22;11222;50.872;4.312;2022-08-04T12:14:08;31.20;99.90
22112;DHT22;11222;50.872;4.312;2022-08-04T12:16:49;31.30;99.90
22112;DHT22;11222;50.872;4.312;2022-08-04T12:21:58;30.30;99.90
22112;DHT22;11222;50.872;4.312;2022-08-04T12:24:40;29.80;99.90
22112;DHT22;11222;50.872;4.312;2022-08-04T12:27:20;29.40;99.90
22112;DHT22;11222;50.872;4.312;2022-08-04T12:29:50;28.90;99.90
22112;DHT22;11222;50.872;4.312;2022-08-04T12:32:21;28.60;99.90
22112;DHT22;11222;50.872;4.312;2022-08-04T12:34:50;28.70;99.90
22112;DHT22;11222;50.872;4.312;2022-08-04T12:37:33;28.50;99.90
22112;DHT22;11222;50.872;4.312;2022-08-04T12:40:02;28.20;99.90
22112;DHT22;11222;50.872;4.312;2022-08-04T12:42:35;27.80;99.90
22112;DHT22;11222;50.872;4.312;2022-08-04T12:45:06;27.70;99.90
22112;DHT22;11222;50.872;4.312;2022-08-04T12:47:34;27.70;99.90
22112;DHT22;11222;50.872;4.312;2022-08-04T12:50:03;27.90;99.90
22112;DHT22;11222;50.872;4.312;2022-08-04T12:52:48;28.10;99.90
22112;DHT22;11222;50.872;4.312;2022-08-04T12:55:16;28.30;99.90
22112;DHT22;11222;50.872;4.312;2022-08-04T12:57:43;28.60;99.90
22112;DHT22;11222;50.872;4.312;2022-08-04T13:00:10;28.90;99.90
22112;DHT22;11222;50.872;4.312;2022-08-04T13:02:40;29.00;99.90
22112;DHT22;11222;50.872;4.312;2022-08-04T13:05:08;29.20;99.90
22112;DHT22;11222;50.872;4.312;2022-08-04T13:07:41;29.40;99.90
22112;DHT22;11222;50.872;4.312;2022-08-04T13:10:15;29.80;99.90
22112;DHT22;11222;50.872;4.312;2022-08-04T13:12:43;30.20;99.90
22112;DHT22;11222;50.872;4.312;2022-08-04T13:15:17;30.30;99.90
22112;DHT22;11222;50.872;4.312;2022-08-04T13:18:00;30.10;99.90
22112;DHT22;11222;50.872;4.312;2022-08-04T13:20:35;29.60;99.90
22112;DHT22;11222;50.872;4.312;2022-08-04T13:23:14;29.40;99.90
22112;DHT22;11222;50.872;4.312;2022-08-04T13:25:44;29.40;99.90
22112;DHT22;11222;50.872;4.312;2022-08-04T13:28:23;29.20;99.90
22112;DHT22;11222;50.872;4.312;2022-08-04T13:30:59;29.30;99.90
22112;DHT22;11222;50.872;4.312;2022-08-04T13:33:35;29.40;99.90
22112;DHT22;11222;50.872;4.312;2022-08-04T13:36:02;29.40;99.90
22112;DHT22;11222;50.872;4.312;2022-08-04T13:38:30;29.40;99.90
22112;DHT22;11222;50.872;4.312;2022-08-04T13:41:01;29.20;99.90
22112;DHT22;11222;50.872;4.312;2022-08-04T13:43:33;29.30;99.90
22112;DHT22;11222;50.872;4.312;2022-08-04T13:46:05;29.30;99.90
22112;DHT22;11222;50.872;4.312;2022-08-04T13:48:39;29.50;99.90
22112;DHT22;11222;50.872;4.312;2022-08-04T13:51:09;29.70;99.90
22112;DHT22;11222;50.872;4.312;2022-08-04T13:53:37;29.70;99.90
22112;DHT22;11222;50.872;4.312;2022-08-04T13:56:06;29.60;99.90
22112;DHT22;11222;50.872;4.312;2022-08-04T13:58:34;29.50;99.90
22112;DHT22;11222;50.872;4.312;2022-08-04T14:01:10;29.70;99.90
22112;DHT22;11222;50.872;4.312;2022-08-04T14:04:09;29.90;99.90
22112;DHT22;11222;50.872;4.312;2022-08-04T14:06:36;29.80;99.90
22112;DHT22;11222;50.872;4.312;2022-08-04T14:09:15;29.70;99.90
22112;DHT22;11222;50.872;4.312;2022-08-04T14:11:47;29.90;99.90
22112;DHT22;11222;50.872;4.312;2022-08-04T14:14:24;29.70;99.90
22112;DHT22;11222;50.872;4.312;2022-08-04T14:17:05;29.60;99.90
22112;DHT22;11222;50.872;4.312;2022-08-04T14:19:58;29.70;99.90
22112;DHT22;11222;50.872;4.312;2022-08-04T14:25:32;29.80;99.90
22112;DHT22;11222;50.872;4.312;2022-08-04T14:27:54;29.90;99.90
22112;DHT22;11222;50.872;4.312;2022-08-04T14:30:34;30.00;99.90
22112;DHT22;11222;50.872;4.312;2022-08-04T14:35:34;29.60;99.90
22112;DHT22;11222;50.872;4.312;2022-08-04T14:38:03;29.50;99.90
22112;DHT22;11222;50.872;4.312;2022-08-04T14:40:39;29.30;99.90
22112;DHT22;11222;50.872;4.312;2022-08-04T14:43:06;29.40;99.90
22112;DHT22;11222;50.872;4.312;2022-08-04T14:45:40;29.40;99.90
22112;DHT22;11222;50.872;4.312;2022-08-04T14:48:15;29.50;99.90
22112;DHT22;11222;50.872;4.312;2022-08-04T14:50:44;29.60;99.90
22112;DHT22;11222;50.872;4.312;2022-08-04T14:53:15;29.20;99.90
22112;DHT22;11222;50.872;4.312;2022-08-04T14:55:46;28.90;99.90
22112;DHT22;11222;50.872;4.312;2022-08-04T14:58:26;29.10;99.90
22112;DHT22;11222;50.872;4.312;2022-08-04T15:00:56;29.30;99.90
22112;DHT22;11222;50.872;4.312;2022-08-04T15:03:22;29.30;99.90
22112;DHT22;11222;50.872;4.312;2022-08-04T15:05:49;29.40;99.90
22112;DHT22;11222;50.872;4.312;2022-08-04T15:08:15;29.50;99.90
22112;DHT22;11222;50.872;4.312;2022-08-04T15:10:42;29.50;99.90
22112;DHT22;11222;50.872;4.312;2022-08-04T15:13:09;29.60;99.90
22112;DHT22;11222;50.872;4.312;2022-08-04T15:15:38;29.80;99.90
22112;DHT22;11222;50.872;4.312;2022-08-04T15:18:09;29.90;99.90
22112;DHT22;11222;50.872;4.312;2022-08-04T15:20:35;29.90;99.90
22112;DHT22;11222;50.872;4.312;2022-08-04T15:23:03;29.90;99.90
22112;DHT22;11222;50.872;4.312;2022-08-04T15:25:50;29.70;99.90
22112;DHT22;11222;50.872;4.312;2022-08-04T15:28:19;29.60;99.90
22112;DHT22;11222;50.872;4.312;2022-08-04T15:30:49;29.60;99.90
22112;DHT22;11222;50.872;4.312;2022-08-04T15:33:16;29.60;99.90
22112;DHT22;11222;50.872;4.312;2022-08-04T15:35:50;29.70;99.90
22112;DHT22;11222;50.872;4.312;2022-08-04T15:38:37;29.50;99.90
22112;DHT22;11222;50.872;4.312;2022-08-04T15:41:34;29.30;99.90
22112;DHT22;11222;50.872;4.312;2022-08-04T15:49:20;29.20;99.90
22112;DHT22;11222;50.872;4.312;2022-08-04T15:51:47;29.40;99.90
22112;DHT22;11222;50.872;4.312;2022-08-04T15:54:23;29.40;99.90
22112;DHT22;11222;50.872;4.312;2022-08-04T15:56:49;29.30;99.90
22112;DHT22;11222;50.872;4.312;2022-08-04T15:59:16;29.20;99.90
22112;DHT22;11222;50.872;4.312;2022-08-04T16:10:42;28.00;99.90
22112;DHT22;11222;50.872;4.312;2022-08-04T16:13:12;27.60;99.90
22112;DHT22;11222;50.872;4.312;2022-08-04T16:18:41;27.80;99.90
22112;DHT22;11222;50.872;4.312;2022-08-04T16:21:23;27.70;99.90
22112;DHT22;11222;50.872;4.312;2022-08-04T16:29:47;27.70;99.90
22112;DHT22;11222;50.872;4.312;2022-08-04T16:37:19;27.70;99.90
22112;DHT22;11222;50.872;4.312;2022-08-04T16:39:46;27.50;99.90
22112;DHT22;11222;50.872;4.312;2022-08-04T16:42:31;27.40;99.90
22112;DHT22;11222;50.872;4.312;2022-08-04T16:45:10;27.40;99.90
22112;DHT22;11222;50.872;4.312;2022-08-04T16:50:20;27.20;99.90
22112;DHT22;11222;50.872;4.312;2022-08-04T16:52:53;27.20;99.90
22112;DHT22;11222;50.872;4.312;2022-08-04T16:55:24;27.20;99.90
22112;DHT22;11222;50.872;4.312;2022-08-04T16:57:53;27.20;99.90
22112;DHT22;11222;50.872;4.312;2022-08-04T17:00:36;27.20;99.90
22112;DHT22;11222;50.872;4.312;2022-08-04T17:03:06;27.40;99.90
22112;DHT22;11222;50.872;4.312;2022-08-04T17:05:33;27.30;99.90
22112;DHT22;11222;50.872;4.312;2022-08-04T17:08:00;27.10;99.90
22112;DHT22;11222;50.872;4.312;2022-08-04T17:13:01;26.80;99.90
22112;DHT22;11222;50.872;4.312;2022-08-04T17:15:28;26.80;99.90
22112;DHT22;11222;50.872;4.312;2022-08-04T17:18:17;26.70;99.90
22112;DHT22;11222;50.872;4.312;2022-08-04T17:20:43;26.60;99.90
22112;DHT22;11222;50.872;4.312;2022-08-04T17:23:45;26.50;99.90
22112;DHT22;11222;50.872;4.312;2022-08-04T17:26:19;26.70;99.90
22112;DHT22;11222;50.872;4.312;2022-08-04T17:28:48;26.60;99.90
22112;DHT22;11222;50.872;4.312;2022-08-04T17:31:14;26.50;99.90
22112;DHT22;11222;50.872;4.312;2022-08-04T17:33:48;26.40;99.90
22112;DHT22;11222;50.872;4.312;2022-08-04T17:36:15;26.40;99.90
22112;DHT22;11222;50.872;4.312;2022-08-04T17:38:49;26.40;99.90
22112;DHT22;11222;50.872;4.312;2022-08-04T17:41:20;26.20;99.90
22112;DHT22;11222;50.872;4.312;2022-08-04T17:43:53;26.10;99.90
22112;DHT22;11222;50.872;4.312;2022-08-04T17:46:41;25.90;99.90
22112;DHT22;11222;50.872;4.312;2022-08-04T17:51:57;25.90;99.90
22112;DHT22;11222;50.872;4.312;2022-08-04T17:57:14;26.00;99.90
22112;DHT22;11222;50.872;4.312;2022-08-04T17:59:44;26.00;99.90
22112;DHT22;11222;50.872;4.312;2022-08-04T18:02:11;25.90;99.90
22112;DHT22;11222;50.872;4.312;2022-08-04T18:07:12;25.90;99.90
22112;DHT22;11222;50.872;4.312;2022-08-04T18:09:40;25.60;99.90
22112;DHT22;11222;50.872;4.312;2022-08-04T18:12:12;25.50;99.90
22112;DHT22;11222;50.872;4.312;2022-08-04T18:14:43;25.50;99.90
22112;DHT22;11222;50.872;4.312;2022-08-04T18:17:10;25.30;99.90
22112;DHT22;11222;50.872;4.312;2022-08-04T18:19:37;25.30;99.90
22112;DHT22;11222;50.872;4.312;2022-08-04T18:22:03;25.30;99.90
22112;DHT22;11222;50.872;4.312;2022-08-04T18:24:32;25.30;99.90
22112;DHT22;11222;50.872;4.312;2022-08-04T18:26:58;25.10;99.90
22112;DHT22;11222;50.872;4.312;2022-08-04T18:29:24;25.10;99.90
22112;DHT22;11222;50.872;4.312;2022-08-04T18:31:49;24.90;99.90
22112;DHT22;11222;50.872;4.312;2022-08-04T18:34:15;24.90;99.90
22112;DHT22;11222;50.872;4.312;2022-08-04T18:36:41;25.00;99.90
22112;DHT22;11222;50.872;4.312;2022-08-04T18:39:09;25.00;99.90
22112;DHT22;11222;50.872;4.312;2022-08-04T18:41:35;24.90;99.90
22112;DHT22;11222;50.872;4.312;2022-08-04T18:44:01;24.90;99.90
22112;DHT22;11222;50.872;4.312;2022-08-04T18:46:27;24.70;99.90
22112;DHT22;11222;50.872;4.312;2022-08-04T18:48:52;24.60;99.90
22112;DHT22;11222;50.872;4.312;2022-08-04T18:51:19;24.50;99.90
22112;DHT22;11222;50.872;4.312;2022-08-04T18:53:45;24.40;99.90
22112;DHT22;11222;50.872;4.312;2022-08-04T18:56:11;24.30;99.90
22112;DHT22;11222;50.872;4.312;2022-08-04T18:58:37;24.40;99.90
22112;DHT22;11222;50.872;4.312;2022-08-04T19:01:03;24.40;99.90
22112;DHT22;11222;50.872;4.312;2022-08-04T19:03:28;24.20;99.90
22112;DHT22;11222;50.872;4.312;2022-08-04T19:05:54;24.20;99.90
22112;DHT22;11222;50.872;4.312;2022-08-04T19:08:20;24.10;99.90
22112;DHT22;11222;50.872;4.312;2022-08-04T19:10:45;24.20;99.90
22112;DHT22;11222;50.872;4.312;2022-08-04T19:13:11;24.10;99.90
22112;DHT22;11222;50.872;4.312;2022-08-04T19:15:37;24.10;99.90
22112;DHT22;11222;50.872;4.312;2022-08-04T19:18:02;24.10;99.90
22112;DHT22;11222;50.872;4.312;2022-08-04T19:20:28;23.80;99.90
22112;DHT22;11222;50.872;4.312;2022-08-04T19:22:54;23.80;99.90
22112;DHT22;11222;50.872;4.312;2022-08-04T19:25:20;23.80;99.90
22112;DHT22;11222;50.872;4.312;2022-08-04T19:27:46;23.70;99.90
22112;DHT22;11222;50.872;4.312;2022-08-04T19:30:11;23.80;99.90
22112;DHT22;11222;50.872;4.312;2022-08-04T19:32:37;23.70;99.90
22112;DHT22;11222;50.872;4.312;2022-08-04T19:35:03;23.60;99.90
22112;DHT22;11222;50.872;4.312;2022-08-04T19:37:29;23.50;99.90
22112;DHT22;11222;50.872;4.312;2022-08-04T19:39:56;23.40;99.90
22112;DHT22;11222;50.872;4.312;2022-08-04T19:42:22;23.20;99.90
22112;DHT22;11222;50.872;4.312;2022-08-04T19:44:48;22.80;99.90
22112;DHT22;11222;50.872;4.312;2022-08-04T19:47:13;22.40;99.90
22112;DHT22;11222;50.872;4.312;2022-08-04T19:49:39;22.30;99.90
22112;DHT22;11222;50.872;4.312;2022-08-04T19:52:05;22.20;99.90
22112;DHT22;11222;50.872;4.312;2022-08-04T19:54:32;22.20;99.90
22112;DHT22;11222;50.872;4.312;2022-08-04T19:56:58;22.20;99.90
22112;DHT22;11222;50.872;4.312;2022-08-04T19:59:23;22.10;99.90
22112;DHT22;11222;50.872;4.312;2022-08-04T20:01:50;22.20;99.90
22112;DHT22;11222;50.872;4.312;2022-08-04T20:04:16;22.30;99.90
22112;DHT22;11222;50.872;4.312;2022-08-04T20:06:42;22.20;99.90
22112;DHT22;11222;50.872;4.312;2022-08-04T20:09:08;22.10;99.90
22112;DHT22;11222;50.872;4.312;2022-08-04T20:11:34;22.10;99.90